Time;durP1;ratioP1;P1;durP2;ratioP2;P2;SDS_P1;SDS_P2;PMS_P1;PMS_P2;Temp;Humidity;BMP_temperature;BMP_pressure;BME280_temperature;BME280_humidity;BME280_pressure;Samples;Min_cycle;Max_cycle;Signal;HPM_P1;HPM_P2
2023/09/25 03:01:37;;;;;;;;;;;12.60;99.90;;;;;;5473262;23;20364;-75
2023/09/25 03:04:03;;;;;;;;;;;12.60;99.90;;;;;;4997192;28;19922;-75
2023/09/25 03:06:29;;;;;;;;;;;12.60;99.90;;;;;;4996894;28;19929;-75
2023/09/25 03:08:54;;;;;;;;;;;12.60;99.90;;;;;;4997180;28;20265;-76
2023/09/25 03:11:20;;;;;;;;;;;12.60;99.90;;;;;;4987649;28;20357;-75
2023/09/25 03:13:45;;;;;;;;;;;12.60;99.90;;;;;;4961534;28;19984;-75
2023/09/25 03:16:12;;;;;;;;;;;12.60;99.90;;;;;;4977314;28;20300;-75
2023/09/25 03:18:37;;;;;;;;;;;12.50;99.90;;;;;;4977566;28;19921;-76
2023/09/25 03:21:13;;;;;;;;;;;12.60;99.90;;;;;;4994633;28;20370;-76
2023/09/25 03:23:39;;;;;;;;;;;12.50;99.90;;;;;;4994638;28;19972;-75
2023/09/25 03:26:15;;;;;;;;;;;12.50;99.90;;;;;;4977765;28;20357;-76
2023/09/25 03:28:41;;;;;;;;;;;12.50;99.90;;;;;;4977130;28;20001;-76
2023/09/25 03:31:06;;;;;;;;;;;12.50;99.90;;;;;;4977327;28;20020;-76
2023/09/25 03:33:32;;;;;;;;;;;12.50;99.90;;;;;;4961302;28;19921;-76
2023/09/25 03:35:57;;;;;;;;;;;12.50;99.90;;;;;;4977366;28;19928;-75
2023/09/25 03:38:23;;;;;;;;;;;12.50;99.90;;;;;;4977320;28;19961;-76
2023/09/25 03:40:48;;;;;;;;;;;12.50;99.90;;;;;;4976994;28;19973;-76
2023/09/25 03:43:14;;;;;;;;;;;12.60;99.90;;;;;;4976976;28;20017;-76
2023/09/25 03:45:40;;;;;;;;;;;12.50;99.90;;;;;;4976881;28;19926;-76
2023/09/25 03:48:05;;;;;;;;;;;12.50;99.90;;;;;;4976854;28;19929;-75
2023/09/25 03:50:31;;;;;;;;;;;12.50;99.90;;;;;;4994338;28;19925;-76
2023/09/25 03:52:59;;;;;;;;;;;12.60;99.90;;;;;;4977444;28;20301;-74
2023/09/25 03:55:25;;;;;;;;;;;12.60;99.90;;;;;;4976902;28;19979;-75
2023/09/25 03:57:51;;;;;;;;;;;12.60;99.90;;;;;;4994274;28;20012;-75
2023/09/25 04:00:16;;;;;;;;;;;12.60;99.90;;;;;;4960857;28;20270;-75
2023/09/25 04:02:42;;;;;;;;;;;12.50;99.90;;;;;;4980554;28;19922;-75
2023/09/25 04:05:08;;;;;;;;;;;12.50;99.90;;;;;;4981230;28;19933;-75
2023/09/25 04:07:34;;;;;;;;;;;12.50;99.90;;;;;;4980758;28;19928;-76
2023/09/25 04:10:01;;;;;;;;;;;12.60;99.90;;;;;;4980678;28;19922;-76
2023/09/25 04:12:27;;;;;;;;;;;12.50;99.90;;;;;;4998263;28;19988;-76
2023/09/25 04:14:53;;;;;;;;;;;12.50;99.90;;;;;;4980574;28;20389;-75
2023/09/25 04:17:20;;;;;;;;;;;12.50;99.90;;;;;;4998007;28;19921;-75
2023/09/25 04:19:46;;;;;;;;;;;12.50;99.90;;;;;;4980767;28;19988;-75
2023/09/25 04:22:12;;;;;;;;;;;12.50;99.90;;;;;;4980315;28;20397;-75
2023/09/25 04:24:37;;;;;;;;;;;12.50;99.90;;;;;;4980622;28;20297;-76
2023/09/25 04:27:03;;;;;;;;;;;12.50;99.90;;;;;;4964223;28;20383;-77
2023/09/25 04:29:29;;;;;;;;;;;12.50;99.90;;;;;;4980276;28;19925;-76
2023/09/25 04:31:54;;;;;;;;;;;12.50;99.90;;;;;;4997646;28;19926;-76
2023/09/25 04:34:20;;;;;;;;;;;12.50;99.90;;;;;;4997682;28;20320;-76
2023/09/25 04:36:46;;;;;;;;;;;12.50;99.90;;;;;;4980115;28;20377;-75
2023/09/25 04:39:15;;;;;;;;;;;12.50;99.90;;;;;;4998133;28;20049;-75
2023/09/25 04:41:45;;;;;;;;;;;12.50;99.90;;;;;;4980052;28;20024;-76
2023/09/25 04:44:10;;;;;;;;;;;12.50;99.90;;;;;;4980062;28;20015;-75
2023/09/25 04:46:37;;;;;;;;;;;12.50;99.90;;;;;;4997663;28;19984;-76
2023/09/25 04:49:04;;;;;;;;;;;12.50;99.90;;;;;;4980221;28;20332;-75
2023/09/25 04:51:30;;;;;;;;;;;12.50;99.90;;;;;;4980110;28;19921;-75
2023/09/25 04:53:55;;;;;;;;;;;12.50;99.90;;;;;;4963861;28;19929;-76
2023/09/25 04:56:21;;;;;;;;;;;12.50;99.90;;;;;;4997528;28;19921;-75
2023/09/25 04:58:47;;;;;;;;;;;12.50;99.90;;;;;;4979738;28;19987;-75
2023/09/25 05:01:12;;;;;;;;;;;12.50;99.90;;;;;;4979589;28;19997;-74
2023/09/25 05:03:40;;;;;;;;;;;12.50;99.90;;;;;;4979735;28;19922;-75
2023/09/25 05:06:06;;;;;;;;;;;12.50;99.90;;;;;;4979550;28;19933;-75
2023/09/25 05:08:32;;;;;;;;;;;12.40;99.90;;;;;;4979602;28;19922;-75
2023/09/25 05:10:57;;;;;;;;;;;12.40;99.90;;;;;;4979504;28;20016;-76
2023/09/25 05:13:23;;;;;;;;;;;12.40;99.90;;;;;;4979281;28;19922;-75
2023/09/25 05:15:49;;;;;;;;;;;12.40;99.90;;;;;;4996777;28;19922;-75
2023/09/25 05:18:14;;;;;;;;;;;12.40;99.90;;;;;;4997088;28;19926;-75
2023/09/25 05:20:40;;;;;;;;;;;12.40;99.90;;;;;;4979212;28;20010;-75
2023/09/25 05:23:05;;;;;;;;;;;12.40;99.90;;;;;;4963255;28;19922;-75
2023/09/25 05:25:31;;;;;;;;;;;12.40;99.90;;;;;;4979213;28;19949;-75
2023/09/25 05:27:57;;;;;;;;;;;12.40;99.90;;;;;;4996873;28;19921;-76
2023/09/25 05:30:23;;;;;;;;;;;12.50;99.90;;;;;;4979086;28;19925;-75
2023/09/25 05:32:49;;;;;;;;;;;12.40;99.90;;;;;;4979069;28;19929;-76
2023/09/25 05:35:15;;;;;;;;;;;12.40;99.90;;;;;;4996457;28;19948;-75
2023/09/25 05:37:45;;;;;;;;;;;12.50;99.90;;;;;;4962946;28;19922;-77
2023/09/25 05:40:11;;;;;;;;;;;12.40;99.90;;;;;;4978950;28;20325;-76
2023/09/25 05:42:42;;;;;;;;;;;12.50;99.90;;;;;;4978815;28;19929;-75
2023/09/25 05:45:08;;;;;;;;;;;12.40;99.90;;;;;;4979022;28;19948;-76
2023/09/25 05:47:34;;;;;;;;;;;12.50;99.90;;;;;;4979058;28;19922;-77
2023/09/25 05:50:00;;;;;;;;;;;12.50;99.90;;;;;;4996784;28;19922;-76
2023/09/25 05:52:26;;;;;;;;;;;12.50;99.90;;;;;;4978581;28;20301;-76
2023/09/25 05:54:51;;;;;;;;;;;12.60;99.90;;;;;;4978990;28;19922;-76
2023/09/25 05:57:17;;;;;;;;;;;12.60;99.90;;;;;;4978589;28;20385;-75
2023/09/25 05:59:43;;;;;;;;;;;12.60;99.90;;;;;;4978511;28;19949;-76
2023/09/25 06:02:08;;;;;;;;;;;12.60;99.90;;;;;;4978643;28;19972;-76
2023/09/25 06:04:36;;;;;;;;;;;12.60;99.90;;;;;;4978633;28;20286;-75
2023/09/25 06:07:04;;;;;;;;;;;12.60;99.90;;;;;;4978589;28;20358;-74
2023/09/25 06:09:31;;;;;;;;;;;12.70;99.90;;;;;;4978295;28;20369;-75
2023/09/25 06:11:57;;;;;;;;;;;12.70;99.90;;;;;;4978262;28;19922;-75
2023/09/25 06:14:23;;;;;;;;;;;12.70;99.90;;;;;;4978237;28;20381;-76
2023/09/25 06:16:50;;;;;;;;;;;12.70;99.90;;;;;;4978257;28;19986;-76
2023/09/25 06:19:18;;;;;;;;;;;12.70;99.90;;;;;;4962097;28;19921;-76
2023/09/25 06:21:44;;;;;;;;;;;12.70;99.90;;;;;;4978155;28;19926;-76
2023/09/25 06:24:12;;;;;;;;;;;12.80;99.90;;;;;;4977788;28;19968;-77
2023/09/25 06:26:39;;;;;;;;;;;12.80;99.90;;;;;;4977984;28;20017;-76
2023/09/25 06:29:09;;;;;;;;;;;12.80;99.90;;;;;;4977942;28;19976;-77
2023/09/25 06:31:36;;;;;;;;;;;12.80;99.90;;;;;;4977901;28;19926;-76
2023/09/25 06:34:07;;;;;;;;;;;12.80;99.90;;;;;;4977740;28;19921;-75
2023/09/25 06:36:36;;;;;;;;;;;12.90;99.90;;;;;;4978143;28;19929;-76
2023/09/25 06:39:06;;;;;;;;;;;12.90;99.90;;;;;;4977856;28;19972;-75
2023/09/25 06:41:32;;;;;;;;;;;12.90;99.90;;;;;;4977987;28;19929;-75
2023/09/25 06:43:58;;;;;;;;;;;12.90;99.90;;;;;;4978019;28;19922;-77
2023/09/25 06:46:24;;;;;;;;;;;13.00;99.90;;;;;;4977598;28;19933;-76
2023/09/25 06:48:50;;;;;;;;;;;12.90;99.90;;;;;;4977930;28;19922;-75
2023/09/25 06:51:19;;;;;;;;;;;13.00;99.90;;;;;;4977522;28;19972;-75
2023/09/25 06:53:45;;;;;;;;;;;13.00;99.90;;;;;;4961485;28;20060;-75
2023/09/25 06:56:10;;;;;;;;;;;13.10;99.90;;;;;;4995448;28;20005;-74
2023/09/25 06:58:36;;;;;;;;;;;13.10;99.90;;;;;;4994934;28;20340;-75
2023/09/25 07:01:02;;;;;;;;;;;13.10;99.90;;;;;;4977553;28;19936;-75
2023/09/25 07:03:28;;;;;;;;;;;13.10;99.90;;;;;;4977465;28;19928;-77
2023/09/25 07:05:53;;;;;;;;;;;13.10;99.90;;;;;;4977346;28;19947;-76
2023/09/25 07:08:19;;;;;;;;;;;13.20;99.90;;;;;;4977363;28;19957;-76
2023/09/25 07:10:46;;;;;;;;;;;13.20;99.90;;;;;;4977228;28;19926;-75
2023/09/25 07:13:12;;;;;;;;;;;13.20;99.90;;;;;;4978689;28;20254;-75
2023/09/25 07:15:38;;;;;;;;;;;13.30;99.90;;;;;;4977557;28;19973;-75
2023/09/25 07:18:04;;;;;;;;;;;13.40;99.90;;;;;;4977280;28;19928;-75
2023/09/25 07:20:30;;;;;;;;;;;13.40;99.90;;;;;;4994528;28;20004;-75
2023/09/25 07:22:55;;;;;;;;;;;13.40;99.90;;;;;;4994844;28;19976;-75
2023/09/25 07:25:21;;;;;;;;;;;13.50;99.90;;;;;;4977185;28;19925;-76
2023/09/25 07:27:46;;;;;;;;;;;13.50;99.90;;;;;;4976992;28;19921;-77
2023/09/25 07:30:12;;;;;;;;;;;13.60;99.90;;;;;;4976984;28;19922;-75
2023/09/25 07:32:39;;;;;;;;;;;13.60;99.90;;;;;;4994430;28;20380;-76
2023/09/25 07:35:09;;;;;;;;;;;13.70;99.90;;;;;;4976676;28;20293;-77
2023/09/25 07:37:35;;;;;;;;;;;13.70;99.90;;;;;;4994406;28;19972;-75
2023/09/25 07:40:00;;;;;;;;;;;13.80;99.90;;;;;;4976934;28;20012;-75
2023/09/25 07:42:26;;;;;;;;;;;13.80;99.90;;;;;;4994300;28;19925;-76
2023/09/25 07:44:52;;;;;;;;;;;13.90;99.90;;;;;;4977114;28;19922;-77
2023/09/25 07:47:18;;;;;;;;;;;13.90;99.90;;;;;;4976818;28;19922;-74
2023/09/25 07:49:44;;;;;;;;;;;13.90;99.90;;;;;;4976859;28;19976;-76
2023/09/25 07:52:17;;;;;;;;;;;14.00;99.90;;;;;;4977023;28;20288;-76
2023/09/25 07:54:44;;;;;;;;;;;14.00;99.90;;;;;;4977108;28;20374;-76
2023/09/25 07:57:14;;;;;;;;;;;14.10;99.90;;;;;;4977531;28;19928;-76
2023/09/25 07:59:39;;;;;;;;;;;14.10;99.90;;;;;;4994186;28;20337;-77
2023/09/25 08:02:05;;;;;;;;;;;14.10;99.90;;;;;;4976834;28;19926;-75
2023/09/25 08:04:30;;;;;;;;;;;14.20;99.90;;;;;;4976910;28;19921;-77
2023/09/25 08:06:56;;;;;;;;;;;14.20;99.90;;;;;;4976570;28;19926;-76
2023/09/25 08:09:22;;;;;;;;;;;14.20;99.90;;;;;;4976631;28;19969;-74
2023/09/25 08:11:48;;;;;;;;;;;14.30;99.90;;;;;;4977292;28;19921;-78
2023/09/25 08:14:14;;;;;;;;;;;14.40;99.90;;;;;;4976868;28;19922;-74
2023/09/25 08:16:39;;;;;;;;;;;14.50;99.90;;;;;;4976595;28;20404;-76
2023/09/25 08:19:05;;;;;;;;;;;14.50;99.90;;;;;;4976597;28;19926;-77
2023/09/25 08:21:31;;;;;;;;;;;14.60;99.90;;;;;;4976465;28;19922;-76
2023/09/25 08:23:56;;;;;;;;;;;14.70;99.90;;;;;;4993996;28;19921;-76
2023/09/25 08:26:22;;;;;;;;;;;14.80;99.90;;;;;;4977526;28;20036;-75
2023/09/25 08:28:47;;;;;;;;;;;14.80;99.90;;;;;;4976764;28;20004;-77
2023/09/25 08:31:13;;;;;;;;;;;14.90;99.90;;;;;;4994065;28;20396;-76
2023/09/25 08:33:40;;;;;;;;;;;15.00;99.90;;;;;;4993812;28;19923;-76
2023/09/25 08:36:10;;;;;;;;;;;15.00;99.90;;;;;;4976365;28;19933;-75
2023/09/25 08:38:35;;;;;;;;;;;15.20;99.90;;;;;;4993713;28;20013;-76
2023/09/25 08:41:01;;;;;;;;;;;15.20;99.90;;;;;;4973714;28;20009;-76
2023/09/25 08:43:27;;;;;;;;;;;15.20;99.90;;;;;;4992107;28;19944;-75
2023/09/25 08:45:53;;;;;;;;;;;15.30;99.90;;;;;;4992193;28;20384;-76
2023/09/25 08:48:19;;;;;;;;;;;15.40;99.90;;;;;;4977577;28;19961;-78
2023/09/25 08:50:45;;;;;;;;;;;15.50;99.90;;;;;;4978319;28;19934;-75
2023/09/25 08:53:10;;;;;;;;;;;15.50;99.90;;;;;;4978354;28;19922;-75
2023/09/25 08:55:36;;;;;;;;;;;15.50;99.90;;;;;;4995749;28;20325;-76
2023/09/25 08:58:03;;;;;;;;;;;15.50;99.90;;;;;;4995811;28;19922;-76
2023/09/25 09:00:29;;;;;;;;;;;15.50;99.90;;;;;;4995526;28;19922;-76
2023/09/25 09:02:55;;;;;;;;;;;15.50;99.90;;;;;;4978298;28;19936;-75
2023/09/25 09:05:21;;;;;;;;;;;15.60;99.90;;;;;;4995600;28;20281;-75
2023/09/25 09:07:59;;;;;;;;;;;15.60;99.90;;;;;;4995533;28;19921;-75
2023/09/25 09:10:28;;;;;;;;;;;15.60;99.90;;;;;;4977883;28;19937;-75
2023/09/25 09:12:54;;;;;;;;;;;15.60;99.90;;;;;;4995387;28;19933;-75
2023/09/25 09:15:26;;;;;;;;;;;15.70;99.90;;;;;;4995803;28;19929;-76
2023/09/25 09:17:53;;;;;;;;;;;15.80;99.90;;;;;;4978328;28;19949;-76
2023/09/25 09:20:19;;;;;;;;;;;15.80;99.90;;;;;;4995689;28;19977;-74
2023/09/25 09:22:51;;;;;;;;;;;15.80;99.90;;;;;;4978165;28;20568;-75
2023/09/25 09:25:24;;;;;;;;;;;16.00;99.90;;;;;;4977705;28;20370;-76
2023/09/25 09:27:49;;;;;;;;;;;16.10;99.90;;;;;;4978031;28;20267;-75
2023/09/25 09:30:22;;;;;;;;;;;16.30;99.90;;;;;;4995072;28;19937;-75
2023/09/25 09:32:50;;;;;;;;;;;16.40;99.90;;;;;;4977882;28;19925;-76
2023/09/25 09:35:27;;;;;;;;;;;16.60;99.90;;;;;;4977498;28;20071;-75
2023/09/25 09:37:54;;;;;;;;;;;16.70;99.90;;;;;;4977671;28;19922;-75
2023/09/25 09:40:24;;;;;;;;;;;16.90;99.90;;;;;;4977372;28;19929;-76
2023/09/25 09:42:50;;;;;;;;;;;16.90;99.90;;;;;;4962870;28;20439;-75
2023/09/25 09:45:16;;;;;;;;;;;17.00;99.90;;;;;;4975252;28;19930;-75
2023/09/25 09:47:43;;;;;;;;;;;17.10;99.90;;;;;;4975463;28;19971;-75
2023/09/25 09:50:09;;;;;;;;;;;17.10;99.90;;;;;;4958023;28;19922;-74
2023/09/25 09:52:36;;;;;;;;;;;17.20;99.90;;;;;;4958092;28;19930;-75
2023/09/25 09:55:04;;;;;;;;;;;17.30;99.90;;;;;;4975310;28;19944;-75
2023/09/25 09:57:31;;;;;;;;;;;17.30;99.90;;;;;;4975591;28;20000;-75
2023/09/25 09:59:56;;;;;;;;;;;17.40;99.90;;;;;;4956849;28;19922;-76
2023/09/25 10:02:22;;;;;;;;;;;17.50;99.90;;;;;;4975108;28;19991;-76
2023/09/25 10:04:48;;;;;;;;;;;17.60;99.90;;;;;;4975261;28;19922;-75
2023/09/25 10:07:15;;;;;;;;;;;17.70;99.90;;;;;;4961520;28;20329;-76
2023/09/25 10:09:59;;;;;;;;;;;17.70;99.90;;;;;;4976823;28;19921;-78
2023/09/25 10:12:37;;;;;;;;;;;17.80;99.90;;;;;;4961032;28;20349;-77
2023/09/25 10:15:07;;;;;;;;;;;17.80;99.90;;;;;;4977318;28;19928;-77
2023/09/25 10:17:38;;;;;;;;;;;17.90;99.90;;;;;;4994484;28;19922;-75
2023/09/25 10:20:04;;;;;;;;;;;17.90;99.90;;;;;;4977273;28;19948;-76
2023/09/25 10:22:30;;;;;;;;;;;18.00;99.90;;;;;;4977305;28;19921;-77
2023/09/25 10:25:04;;;;;;;;;;;18.10;99.90;;;;;;4976648;28;19926;-76
2023/09/25 10:27:31;;;;;;;;;;;18.10;99.90;;;;;;4994219;28;19972;-77
2023/09/25 10:30:14;;;;;;;;;;;18.10;99.90;;;;;;4976620;28;19965;-76
2023/09/25 10:32:40;;;;;;;;;;;18.10;99.90;;;;;;4977318;28;19922;-77
2023/09/25 10:35:47;;;;;;;;;;;18.20;99.90;;;;;;4976830;28;20329;-76
2023/09/25 10:38:21;;;;;;;;;;;18.20;99.90;;;;;;4880538;29;19923;-76
2023/09/25 10:40:49;;;;;;;;;;;18.30;99.90;;;;;;4880355;29;19975;-75
2023/09/25 10:43:18;;;;;;;;;;;18.40;99.90;;;;;;4933451;28;20013;-74
2023/09/25 10:45:44;;;;;;;;;;;18.40;99.90;;;;;;4975559;28;20028;-75
2023/09/25 10:48:11;;;;;;;;;;;18.40;99.90;;;;;;4975724;28;20013;-75
2023/09/25 10:50:37;;;;;;;;;;;18.40;99.90;;;;;;4992959;28;19965;-75
2023/09/25 10:53:05;;;;;;;;;;;18.50;99.90;;;;;;4975668;28;19922;-75
2023/09/25 10:55:32;;;;;;;;;;;18.60;99.90;;;;;;4993132;28;19968;-75
2023/09/25 10:57:58;;;;;;;;;;;18.70;99.90;;;;;;4975193;28;19921;-76
2023/09/25 11:00:24;;;;;;;;;;;18.80;99.90;;;;;;4975181;28;20029;-76
2023/09/25 11:02:50;;;;;;;;;;;19.00;99.90;;;;;;4975357;28;19947;-77
2023/09/25 11:05:16;;;;;;;;;;;19.00;99.90;;;;;;4992492;28;20389;-76
2023/09/25 11:07:41;;;;;;;;;;;19.10;99.90;;;;;;4975238;28;19937;-76
2023/09/25 11:10:10;;;;;;;;;;;19.10;99.90;;;;;;4974897;28;19929;-75
2023/09/25 11:12:36;;;;;;;;;;;19.20;99.90;;;;;;4975101;28;20274;-76
2023/09/25 11:15:11;;;;;;;;;;;19.20;99.90;;;;;;4974976;28;20444;-77
2023/09/25 11:17:38;;;;;;;;;;;19.20;99.90;;;;;;4974860;28;19973;-75
2023/09/25 11:20:15;;;;;;;;;;;19.30;99.90;;;;;;4950210;28;19929;-77
2023/09/25 11:22:41;;;;;;;;;;;19.40;99.90;;;;;;4967718;28;19928;-76
2023/09/25 11:25:11;;;;;;;;;;;19.50;99.90;;;;;;4983321;28;20293;-76
2023/09/25 11:27:37;;;;;;;;;;;19.70;99.90;;;;;;4984456;28;19922;-75
2023/09/25 11:30:07;;;;;;;;;;;19.80;99.90;;;;;;4985100;28;20402;-76
2023/09/25 11:32:32;;;;;;;;;;;19.90;99.90;;;;;;4983594;28;20377;-76
2023/09/25 11:34:58;;;;;;;;;;;20.00;99.90;;;;;;4966916;28;19929;-76
2023/09/25 11:37:23;;;;;;;;;;;20.00;99.90;;;;;;4967672;28;19922;-75
2023/09/25 11:39:49;;;;;;;;;;;20.00;99.90;;;;;;4965789;28;19922;-77
2023/09/25 11:42:15;;;;;;;;;;;19.90;99.90;;;;;;4967354;28;19972;-76
2023/09/25 11:44:40;;;;;;;;;;;19.90;99.90;;;;;;4967116;28;20369;-75
2023/09/25 11:47:10;;;;;;;;;;;19.90;99.90;;;;;;4983143;28;19934;-76
2023/09/25 11:49:35;;;;;;;;;;;20.10;99.90;;;;;;4967029;28;19926;-77
2023/09/25 11:52:01;;;;;;;;;;;20.10;99.90;;;;;;4967131;28;19922;-76
2023/09/25 11:54:27;;;;;;;;;;;20.10;99.90;;;;;;4983030;28;20005;-76
2023/09/25 11:56:52;;;;;;;;;;;20.10;99.90;;;;;;4967444;28;19921;-76
2023/09/25 11:59:18;;;;;;;;;;;20.20;99.90;;;;;;4966995;28;19944;-76
2023/09/25 12:01:45;;;;;;;;;;;20.30;99.90;;;;;;4952092;28;19926;-75
2023/09/25 12:04:12;;;;;;;;;;;20.20;99.90;;;;;;4970323;28;19969;-76
2023/09/25 12:06:37;;;;;;;;;;;20.20;99.90;;;;;;4971186;28;19933;-77
2023/09/25 12:09:12;;;;;;;;;;;20.20;99.90;;;;;;4994629;28;19922;-76
2023/09/25 12:11:38;;;;;;;;;;;20.10;99.90;;;;;;4976681;28;19922;-77
2023/09/25 12:14:04;;;;;;;;;;;20.10;99.90;;;;;;4976734;28;20390;-76
2023/09/25 12:16:30;;;;;;;;;;;20.00;99.90;;;;;;4976694;28;20401;-76
2023/09/25 12:18:56;;;;;;;;;;;19.90;99.90;;;;;;4976995;28;19922;-75
2023/09/25 12:21:22;;;;;;;;;;;19.90;99.90;;;;;;4994577;28;20285;-76
2023/09/25 12:23:47;;;;;;;;;;;19.90;99.90;;;;;;4980689;28;19928;-75
2023/09/25 12:26:15;;;;;;;;;;;19.80;99.90;;;;;;4980342;28;20305;-75
2023/09/25 12:28:41;;;;;;;;;;;19.80;99.90;;;;;;4980657;28;20276;-77
2023/09/25 12:31:06;;;;;;;;;;;19.90;99.90;;;;;;4980246;28;19922;-75
2023/09/25 12:33:32;;;;;;;;;;;20.10;99.90;;;;;;4980298;28;19968;-76
2023/09/25 12:35:58;;;;;;;;;;;20.30;99.90;;;;;;4980253;28;19925;-75
2023/09/25 12:38:23;;;;;;;;;;;20.50;99.90;;;;;;4998244;28;19929;-77
2023/09/25 12:40:49;;;;;;;;;;;20.70;99.90;;;;;;4980336;28;20333;-75
2023/09/25 12:43:14;;;;;;;;;;;20.90;99.90;;;;;;4986931;28;20293;-75
2023/09/25 12:45:40;;;;;;;;;;;21.00;99.90;;;;;;4944900;28;19980;-74
2023/09/25 12:48:06;;;;;;;;;;;21.10;99.90;;;;;;4960701;28;20006;-77
2023/09/25 12:50:31;;;;;;;;;;;21.10;99.90;;;;;;4960836;28;19926;-77
2023/09/25 12:52:57;;;;;;;;;;;21.20;99.90;;;;;;4960628;28;19922;-76
2023/09/25 12:55:22;;;;;;;;;;;21.20;99.90;;;;;;4960844;28;20324;-75
2023/09/25 12:57:50;;;;;;;;;;;21.20;99.90;;;;;;4968055;28;19984;-76
2023/09/25 13:00:18;;;;;;;;;;;21.30;99.90;;;;;;4969114;28;19928;-76
2023/09/25 13:02:43;;;;;;;;;;;21.40;99.90;;;;;;4952669;28;19955;-76
2023/09/25 13:05:10;;;;;;;;;;;21.40;99.90;;;;;;4985877;28;19922;-75
2023/09/25 13:07:36;;;;;;;;;;;21.50;99.90;;;;;;4970329;28;20282;-75
2023/09/25 13:10:04;;;;;;;;;;;21.60;99.90;;;;;;4969834;28;19922;-77
2023/09/25 13:12:33;;;;;;;;;;;21.60;99.90;;;;;;4968259;28;20016;-74
2023/09/25 13:14:58;;;;;;;;;;;21.60;99.90;;;;;;4969827;28;20016;-74
2023/09/25 13:17:24;;;;;;;;;;;21.70;99.90;;;;;;4969796;28;20032;-76
2023/09/25 13:19:49;;;;;;;;;;;21.80;99.90;;;;;;4968353;28;19922;-74
2023/09/25 13:22:15;;;;;;;;;;;21.80;99.90;;;;;;4987530;28;20017;-75
2023/09/25 13:24:40;;;;;;;;;;;21.80;99.90;;;;;;4986858;28;19922;-76
2023/09/25 13:27:06;;;;;;;;;;;21.80;99.90;;;;;;4968529;28;19969;-76
2023/09/25 13:29:32;;;;;;;;;;;21.80;99.90;;;;;;4987537;28;19980;-76
2023/09/25 13:31:58;;;;;;;;;;;21.90;99.90;;;;;;4952604;28;19922;-76
2023/09/25 13:34:24;;;;;;;;;;;21.90;99.90;;;;;;4968787;28;19968;-76
2023/09/25 13:36:49;;;;;;;;;;;22.00;99.90;;;;;;4987643;28;19965;-75
2023/09/25 13:39:17;;;;;;;;;;;22.00;99.90;;;;;;4968088;28;20329;-75
2023/09/25 13:41:43;;;;;;;;;;;22.00;99.90;;;;;;4969014;28;20379;-76
2023/09/25 13:44:10;;;;;;;;;;;22.00;99.90;;;;;;4972923;28;19921;-76
2023/09/25 13:46:36;;;;;;;;;;;21.90;99.90;;;;;;4978931;28;20374;-76
2023/09/25 13:49:02;;;;;;;;;;;21.80;99.90;;;;;;4978861;28;20012;-76
2023/09/25 13:51:28;;;;;;;;;;;21.80;99.90;;;;;;4996250;28;19984;-76
2023/09/25 13:53:55;;;;;;;;;;;21.80;99.90;;;;;;4979166;28;20374;-77
2023/09/25 13:56:20;;;;;;;;;;;21.90;99.90;;;;;;4996213;28;19973;-76
2023/09/25 13:58:46;;;;;;;;;;;22.00;99.90;;;;;;4996749;28;19921;-77
2023/09/25 14:01:12;;;;;;;;;;;22.00;99.90;;;;;;4996109;28;20259;-77
2023/09/25 14:03:38;;;;;;;;;;;22.00;99.90;;;;;;4978645;28;19922;-77
2023/09/25 14:06:05;;;;;;;;;;;22.00;99.90;;;;;;4978622;28;19949;-75
2023/09/25 14:08:30;;;;;;;;;;;22.00;99.90;;;;;;4978488;28;20011;-77
2023/09/25 14:11:00;;;;;;;;;;;21.90;99.90;;;;;;5010959;28;20433;-76
2023/09/25 14:13:26;;;;;;;;;;;21.90;99.90;;;;;;4962711;28;20337;-76
2023/09/25 14:15:51;;;;;;;;;;;21.90;99.90;;;;;;5010996;28;19922;-78
2023/09/25 14:18:18;;;;;;;;;;;21.90;99.90;;;;;;4978381;28;19944;-75
2023/09/25 14:20:46;;;;;;;;;;;21.80;99.90;;;;;;4978258;28;19941;-75
2023/09/25 14:23:12;;;;;;;;;;;21.80;99.90;;;;;;4978523;28;19926;-75
2023/09/25 14:25:37;;;;;;;;;;;21.80;99.90;;;;;;4978265;28;19926;-75
2023/09/25 14:28:04;;;;;;;;;;;21.70;99.90;;;;;;4978141;28;20378;-75
2023/09/25 14:30:30;;;;;;;;;;;21.70;99.90;;;;;;4978083;28;19928;-76
2023/09/25 14:32:56;;;;;;;;;;;21.60;99.90;;;;;;4978014;28;19973;-75
2023/09/25 14:35:22;;;;;;;;;;;21.50;99.90;;;;;;4978010;28;20021;-74
2023/09/25 14:37:48;;;;;;;;;;;21.40;99.90;;;;;;4978014;28;19993;-75
2023/09/25 14:40:13;;;;;;;;;;;21.40;99.90;;;;;;4977875;28;19922;-74
2023/09/25 14:42:39;;;;;;;;;;;21.50;99.90;;;;;;4977776;28;19946;-77
2023/09/25 14:45:05;;;;;;;;;;;21.50;99.90;;;;;;4977274;28;20020;-77
2023/09/25 14:47:31;;;;;;;;;;;21.50;99.90;;;;;;4977651;28;19930;-76
2023/09/25 14:49:57;;;;;;;;;;;21.50;99.90;;;;;;4995123;28;19922;-74
2023/09/25 14:52:23;;;;;;;;;;;21.50;99.90;;;;;;4982629;28;19928;-78
2023/09/25 14:54:49;;;;;;;;;;;21.50;99.90;;;;;;4981673;28;19922;-75
2023/09/25 14:57:14;;;;;;;;;;;21.40;99.90;;;;;;4967467;28;19922;-76
2023/09/25 14:59:40;;;;;;;;;;;21.30;99.90;;;;;;4990900;28;19922;-77
2023/09/25 15:02:06;;;;;;;;;;;21.20;99.90;;;;;;4965561;28;19926;-76
2023/09/25 15:04:32;;;;;;;;;;;21.10;99.90;;;;;;4976303;28;19922;-77
2023/09/25 15:06:58;;;;;;;;;;;21.00;99.90;;;;;;4977305;28;20012;-74
2023/09/25 15:09:23;;;;;;;;;;;20.90;99.90;;;;;;4970715;28;19929;-76
2023/09/25 15:11:48;;;;;;;;;;;20.80;99.90;;;;;;4990100;28;19922;-76
2023/09/25 15:14:14;;;;;;;;;;;20.70;99.90;;;;;;4965443;28;20370;-76
2023/09/25 15:16:40;;;;;;;;;;;20.60;99.90;;;;;;4966194;28;19922;-77
2023/09/25 15:19:05;;;;;;;;;;;20.50;99.90;;;;;;4972514;28;19932;-76
2023/09/25 15:21:31;;;;;;;;;;;20.60;99.90;;;;;;4961435;28;19937;-77
2023/09/25 15:23:56;;;;;;;;;;;20.50;99.90;;;;;;4971901;28;20417;-74
2023/09/25 15:26:22;;;;;;;;;;;20.50;99.90;;;;;;4983915;28;19977;-75
2023/09/25 15:28:48;;;;;;;;;;;20.50;99.90;;;;;;4982228;28;20278;-75
2023/09/25 15:31:14;;;;;;;;;;;20.40;99.90;;;;;;4973122;28;19921;-75
2023/09/25 15:33:39;;;;;;;;;;;20.40;99.90;;;;;;4960898;28;19922;-76
2023/09/25 15:36:05;;;;;;;;;;;20.30;99.90;;;;;;4970222;28;19926;-75
2023/09/25 15:38:30;;;;;;;;;;;20.30;99.90;;;;;;4978035;28;19973;-77
2023/09/25 15:40:56;;;;;;;;;;;20.30;99.90;;;;;;4960542;28;19930;-75
2023/09/25 15:43:21;;;;;;;;;;;20.20;99.90;;;;;;4965972;28;19956;-74
2023/09/25 15:45:47;;;;;;;;;;;20.20;99.90;;;;;;4977343;28;20309;-76
2023/09/25 15:48:12;;;;;;;;;;;20.20;99.90;;;;;;4970996;28;19922;-76
2023/09/25 15:50:38;;;;;;;;;;;20.20;99.90;;;;;;4966414;28;19985;-76
2023/09/25 15:53:04;;;;;;;;;;;20.10;99.90;;;;;;4977060;28;19964;-77
2023/09/25 15:55:29;;;;;;;;;;;20.10;99.90;;;;;;4966741;28;20428;-77
2023/09/25 15:57:55;;;;;;;;;;;20.00;99.90;;;;;;4959911;28;19933;-76
2023/09/25 16:00:20;;;;;;;;;;;20.00;99.90;;;;;;4961342;28;19926;-76
2023/09/25 16:02:46;;;;;;;;;;;20.00;99.90;;;;;;4961437;28;19922;-76
2023/09/25 16:05:12;;;;;;;;;;;20.00;99.90;;;;;;4978730;28;19930;-77
2023/09/25 16:07:38;;;;;;;;;;;20.00;99.90;;;;;;4979000;28;19922;-76
2023/09/25 16:10:03;;;;;;;;;;;19.90;99.90;;;;;;4961341;28;19929;-76
2023/09/25 16:12:29;;;;;;;;;;;19.90;99.90;;;;;;4961263;28;19922;-76
2023/09/25 16:14:55;;;;;;;;;;;19.90;99.90;;;;;;4961273;28;19933;-76
2023/09/25 16:17:20;;;;;;;;;;;19.90;99.90;;;;;;4961176;28;19922;-77
2023/09/25 16:19:49;;;;;;;;;;;19.80;99.90;;;;;;4961096;28;20263;-76
2023/09/25 16:22:15;;;;;;;;;;;19.80;99.90;;;;;;4961269;28;19926;-77
2023/09/25 16:24:41;;;;;;;;;;;19.80;99.90;;;;;;4960986;28;20287;-75
2023/09/25 16:27:06;;;;;;;;;;;19.70;99.90;;;;;;4960945;28;19926;-74
2023/09/25 16:29:32;;;;;;;;;;;19.60;99.90;;;;;;4960835;28;19922;-76
2023/09/25 16:31:57;;;;;;;;;;;19.60;99.90;;;;;;4961211;28;20325;-76
2023/09/25 16:34:23;;;;;;;;;;;19.60;99.90;;;;;;4975465;28;20340;-76
2023/09/25 16:36:48;;;;;;;;;;;19.60;99.90;;;;;;4980116;28;20297;-77
2023/09/25 16:39:14;;;;;;;;;;;19.60;99.90;;;;;;4965712;28;19930;-75
2023/09/25 16:41:40;;;;;;;;;;;19.50;99.90;;;;;;4995646;28;19926;-75
2023/09/25 16:44:05;;;;;;;;;;;19.50;99.90;;;;;;4979984;28;19926;-75
2023/09/25 16:46:31;;;;;;;;;;;19.40;99.90;;;;;;4980852;28;19930;-75
2023/09/25 16:48:57;;;;;;;;;;;19.40;99.90;;;;;;4997462;28;19922;-76
2023/09/25 16:51:23;;;;;;;;;;;19.40;99.90;;;;;;4997254;28;19971;-76
2023/09/25 16:53:48;;;;;;;;;;;19.30;99.90;;;;;;4979925;28;19925;-76
2023/09/25 16:56:16;;;;;;;;;;;19.30;99.90;;;;;;4997370;28;19967;-75
2023/09/25 16:58:41;;;;;;;;;;;19.30;99.90;;;;;;4979582;28;19965;-75
2023/09/25 17:01:08;;;;;;;;;;;19.20;99.90;;;;;;4979483;28;19964;-76
2023/09/25 17:03:33;;;;;;;;;;;19.20;99.90;;;;;;4979722;28;19928;-75
2023/09/25 17:05:59;;;;;;;;;;;19.10;99.90;;;;;;4980412;28;19926;-75
2023/09/25 17:08:24;;;;;;;;;;;19.10;99.90;;;;;;4979174;28;19926;-76
2023/09/25 17:10:51;;;;;;;;;;;19.10;99.90;;;;;;4979450;28;20024;-75
2023/09/25 17:13:18;;;;;;;;;;;19.10;99.90;;;;;;4979502;28;19967;-75